Time;durP1;ratioP1;P1;durP2;ratioP2;P2;SDS_P1;SDS_P2;PMS_P1;PMS_P2;Temp;Humidity;BMP_temperature;BMP_pressure;BME280_temperature;BME280_humidity;BME280_pressure;Samples;Min_cycle;Max_cycle;Signal;HPM_P1;HPM_P2
2021/08/17 00:02:16;;;;;;;7.50;1.85;;;;;;;14.82;61.91;101742.63;4929105;29;20040;-86
2021/08/17 00:04:42;;;;;;;6.53;2.25;;;;;;;14.80;62.01;101741.84;4924919;29;20110;-86
2021/08/17 00:07:07;;;;;;;9.18;1.77;;;;;;;14.85;61.68;101726.50;4941023;29;20040;-86
2021/08/17 00:09:34;;;;;;;12.27;2.17;;;;;;;14.77;62.14;101728.69;4941078;29;20127;-88
2021/08/17 00:12:01;;;;;;;8.07;2.00;;;;;;;14.87;61.39;101719.28;4942767;29;20055;-90
2021/08/17 00:14:26;;;;;;;14.48;2.35;;;;;;;15.03;61.19;101724.56;4942581;29;20028;-88
2021/08/17 00:16:52;;;;;;;8.45;2.10;;;;;;;14.91;61.68;101725.25;4926780;29;20403;-90
2021/08/17 00:19:17;;;;;;;9.90;2.25;;;;;;;15.03;61.18;101721.91;4925537;29;20095;-90
2021/08/17 00:21:43;;;;;;;5.15;1.80;;;;;;;14.79;61.83;101727.72;4924709;29;20024;-87
2021/08/17 00:24:09;;;;;;;11.80;2.50;;;;;;;14.79;61.93;101722.38;4926631;29;20032;-90
2021/08/17 00:26:36;;;;;;;8.95;2.33;;;;;;;14.78;61.50;101722.44;4925279;29;20072;-85
2021/08/17 00:29:01;;;;;;;10.38;2.38;;;;;;;14.67;61.82;101721.22;4939962;29;20047;-87
2021/08/17 00:31:27;;;;;;;8.30;2.00;;;;;;;14.92;61.30;101717.19;4941437;29;20038;-86
2021/08/17 00:36:22;;;;;;;8.65;2.08;;;;;;;14.87;61.69;101716.63;4954146;29;20414;-85
2021/08/17 00:38:49;;;;;;;10.43;2.42;;;;;;;14.87;61.77;101721.06;4927282;29;20043;-84
2021/08/17 00:41:14;;;;;;;9.57;2.28;;;;;;;14.79;62.54;101722.38;4942438;29;20027;-84
2021/08/17 00:43:40;;;;;;;9.75;2.30;;;;;;;14.92;62.27;101717.19;4926748;29;20023;-84
2021/08/17 00:46:12;;;;;;;6.85;1.92;;;;;;;15.03;61.90;101713.91;4942266;29;20035;-86
2021/08/17 00:48:38;;;;;;;5.53;2.00;;;;;;;14.76;62.96;101719.88;4927194;29;20042;-87
2021/08/17 00:51:07;;;;;;;8.60;1.92;;;;;;;14.90;61.87;101713.78;4943011;29;20293;-85
2021/08/17 00:53:32;;;;;;;9.40;2.17;;;;;;;14.93;61.70;101718.06;4941529;29;20194;-86
2021/08/17 00:55:58;;;;;;;8.25;2.05;;;;;;;14.88;61.37;101725.44;4926561;29;20031;-86
2021/08/17 00:58:23;;;;;;;10.05;2.55;;;;;;;14.95;61.25;101717.00;4911171;29;20019;-86
2021/08/17 01:00:49;;;;;;;13.32;2.78;;;;;;;14.97;60.98;101722.25;4942972;29;20088;-86
2021/08/17 01:03:15;;;;;;;6.55;2.30;;;;;;;15.07;60.34;101723.44;4926386;29;20054;-85
2021/08/17 01:05:40;;;;;;;12.07;2.28;;;;;;;15.16;60.22;101721.19;4960345;29;20071;-86
2021/08/17 01:08:07;;;;;;;6.40;2.20;;;;;;;15.11;60.42;101720.59;4961532;29;20121;-83
2021/08/17 01:10:33;;;;;;;12.23;2.33;;;;;;;15.13;60.85;101727.56;4944396;29;20045;-86
2021/08/17 01:13:00;;;;;;;10.07;2.33;;;;;;;15.10;60.88;101711.75;4961754;29;20025;-89
2021/08/17 01:15:25;;;;;;;8.55;2.20;;;;;;;15.09;60.54;101718.03;4944167;29;20043;-86
2021/08/17 01:17:52;;;;;;;7.45;2.13;;;;;;;15.30;60.14;101715.91;4914042;29;20038;-89
2021/08/17 01:20:21;;;;;;;6.45;2.10;;;;;;;15.25;60.69;101728.63;4961852;29;20031;-88
2021/08/17 01:22:48;;;;;;;7.00;2.42;;;;;;;15.52;60.17;101730.63;4944896;29;20059;-87
2021/08/17 01:25:15;;;;;;;9.85;2.42;;;;;;;15.39;61.13;101726.97;4915297;29;20102;-86
2021/08/17 01:27:43;;;;;;;7.57;2.30;;;;;;;15.48;61.41;101723.75;4946986;29;20031;-90
2021/08/17 01:30:09;;;;;;;9.18;2.60;;;;;;;15.36;62.24;101728.00;4964347;29;20036;-92
2021/08/17 01:32:34;;;;;;;9.25;2.33;;;;;;;15.43;62.55;101741.81;4946227;29;20050;-87
2021/08/17 01:35:01;;;;;;;9.15;2.28;;;;;;;15.37;62.87;101735.06;4944552;29;20083;-84
2021/08/17 01:37:27;;;;;;;11.48;2.30;;;;;;;15.48;62.30;101729.09;4959325;29;20039;-85
2021/08/17 01:39:58;;;;;;;6.72;2.10;;;;;;;15.46;62.36;101725.66;4959191;29;20049;-85
2021/08/17 01:42:24;;;;;;;12.18;2.88;;;;;;;15.47;62.40;101731.84;4942190;29;20541;-85
2021/08/17 01:44:49;;;;;;;8.20;2.40;;;;;;;15.49;62.38;101735.25;4942552;29;20035;-86
2021/08/17 01:47:15;;;;;;;6.93;2.30;;;;;;;15.43;62.34;101737.34;4942491;29;20123;-84
2021/08/17 01:49:40;;;;;;;7.18;2.38;;;;;;;15.48;62.50;101741.56;4943288;29;20039;-84
2021/08/17 01:52:06;;;;;;;13.43;2.45;;;;;;;15.37;63.25;101740.41;4960615;29;20038;-84
2021/08/17 01:54:31;;;;;;;9.32;2.97;;;;;;;15.50;63.06;101735.16;4963372;29;20364;-87
2021/08/17 01:56:57;;;;;;;6.57;2.55;;;;;;;15.43;63.32;101740.03;4928904;29;20061;-88
2021/08/17 01:59:24;;;;;;;8.10;2.50;;;;;;;15.49;63.09;101741.47;4962636;29;20031;-84
2021/08/17 02:01:49;;;;;;;8.20;2.60;;;;;;;15.49;63.00;101749.44;4967286;29;20034;-83
2021/08/17 02:04:15;;;;;;;11.52;2.55;;;;;;;15.66;62.77;101742.25;4932506;29;20370;-87
2021/08/17 02:06:40;;;;;;;8.70;2.40;;;;;;;15.36;63.56;101743.16;4963356;29;20114;-86
2021/08/17 02:09:06;;;;;;;7.95;2.97;;;;;;;15.58;62.70;101734.69;4963349;29;20029;-86
2021/08/17 02:11:31;;;;;;;8.05;2.53;;;;;;;15.53;62.83;101742.13;4962008;29;20070;-88
2021/08/17 02:13:58;;;;;;;8.98;2.58;;;;;;;15.45;63.30;101750.59;4962633;29;20042;-90
2021/08/17 02:16:23;;;;;;;7.85;2.20;;;;;;;15.55;62.98;101743.75;4946178;29;20114;-85
2021/08/17 02:18:49;;;;;;;7.80;2.28;;;;;;;15.71;62.63;101734.81;4946067;29;20041;-89
2021/08/17 02:21:14;;;;;;;9.50;2.38;;;;;;;15.75;62.36;101738.19;4963481;29;20342;-88
2021/08/17 02:23:40;;;;;;;7.18;2.47;;;;;;;15.62;62.78;101746.91;4962292;29;20089;-86
2021/08/17 02:26:05;;;;;;;9.40;2.70;;;;;;;15.55;63.06;101743.75;4962496;29;20039;-86
2021/08/17 02:28:31;;;;;;;8.50;2.38;;;;;;;15.70;62.68;101731.28;4962652;29;20405;-89
2021/08/17 02:30:56;;;;;;;10.30;2.88;;;;;;;15.59;63.05;101728.44;4944691;29;20098;-86
2021/08/17 02:33:21;;;;;;;10.30;3.20;;;;;;;15.89;62.28;101743.50;4961828;29;20060;-86
2021/08/17 02:35:47;;;;;;;5.38;2.33;;;;;;;15.82;62.41;101732.38;4961894;29;20429;-86
2021/08/17 02:38:14;;;;;;;8.45;2.58;;;;;;;15.69;62.79;101728.72;4944936;29;20395;-86
2021/08/17 02:40:40;;;;;;;6.03;2.30;;;;;;;15.83;62.40;101725.22;4962423;29;20035;-84
2021/08/17 02:43:05;;;;;;;11.23;2.78;;;;;;;15.77;62.94;101738.91;4961435;29;20035;-85
2021/08/17 02:45:32;;;;;;;5.80;2.30;;;;;;;15.82;62.80;101729.72;4928802;29;20079;-87
2021/08/17 02:47:58;;;;;;;8.80;2.35;;;;;;;15.89;62.66;101742.66;4929348;29;20058;-85
2021/08/17 02:50:25;;;;;;;8.57;2.60;;;;;;;15.86;63.02;101740.19;4961820;29;20027;-86
2021/08/17 02:52:51;;;;;;;7.60;2.80;;;;;;;15.98;62.73;101731.47;4944604;29;20066;-85
2021/08/17 02:55:16;;;;;;;10.68;2.67;;;;;;;15.94;62.97;101729.88;4944726;29;20023;-86
2021/08/17 02:57:47;;;;;;;11.38;2.72;;;;;;;15.85;62.94;101736.66;4961596;29;20096;-86
2021/08/17 03:00:13;;;;;;;7.95;2.50;;;;;;;15.79;63.19;101734.38;4928906;29;20074;-86
2021/08/17 03:02:38;;;;;;;6.10;2.28;;;;;;;15.94;63.05;101737.88;4944234;29;20066;-87
2021/08/17 03:05:04;;;;;;;7.40;2.85;;;;;;;15.88;63.72;101733.78;4961808;29;20041;-87
2021/08/17 03:07:29;;;;;;;8.02;2.50;;;;;;;15.99;63.43;101730.50;4962807;29;20046;-88
2021/08/17 03:09:55;;;;;;;6.18;2.30;;;;;;;16.10;63.14;101721.81;4934209;29;20040;-84
2021/08/17 03:12:20;;;;;;;13.38;2.90;;;;;;;15.97;63.71;101734.19;4968712;29;20041;-83
2021/08/17 03:14:46;;;;;;;6.00;2.83;;;;;;;15.98;63.61;101728.78;4969337;29;20035;-83
2021/08/17 03:17:11;;;;;;;10.82;2.60;;;;;;;16.09;63.18;101724.59;4939626;29;20067;-83
2021/08/17 03:19:37;;;;;;;8.27;2.80;;;;;;;16.10;62.96;101721.81;4956101;29;20042;-84
2021/08/17 03:22:02;;;;;;;8.38;2.75;;;;;;;16.13;62.81;101728.81;4967551;29;20467;-84
2021/08/17 03:24:28;;;;;;;7.63;2.67;;;;;;;16.14;62.83;101725.16;4947113;29;20039;-85
2021/08/17 03:26:53;;;;;;;7.45;2.72;;;;;;;16.26;62.38;101711.06;4931597;29;20031;-85
2021/08/17 03:29:20;;;;;;;6.20;3.17;;;;;;;16.31;62.41;101719.63;4963417;29;20474;-88
2021/08/17 03:31:46;;;;;;;7.32;2.40;;;;;;;16.21;62.58;101729.16;4965425;29;20398;-86
2021/08/17 03:34:11;;;;;;;5.80;2.53;;;;;;;16.30;62.85;101728.56;4963023;29;20034;-86
2021/08/17 03:36:38;;;;;;;5.60;2.70;;;;;;;16.25;62.73;101729.81;4943782;29;20057;-86
2021/08/17 03:39:03;;;;;;;7.88;2.83;;;;;;;16.19;62.92;101731.09;4967432;29;20043;-86
2021/08/17 03:41:29;;;;;;;7.70;2.85;;;;;;;16.05;63.06;101726.63;4968741;29;20117;-84
2021/08/17 03:43:56;;;;;;;9.43;3.30;;;;;;;15.99;62.86;101732.28;4965819;29;20035;-87
2021/08/17 03:46:22;;;;;;;10.68;3.42;;;;;;;16.11;62.03;101717.34;4966161;29;20039;-86
2021/08/17 03:48:47;;;;;;;10.07;3.60;;;;;;;16.28;61.58;101727.84;4970047;29;20058;-88
2021/08/17 03:51:13;;;;;;;8.55;3.30;;;;;;;16.16;61.80;101742.78;4971556;29;20019;-89
2021/08/17 03:53:39;;;;;;;6.68;3.30;;;;;;;16.03;62.64;101712.50;4967097;29;20035;-91
2021/08/17 03:56:05;;;;;;;7.78;3.47;;;;;;;16.11;62.64;101712.88;4964757;29;20035;-90
2021/08/17 03:58:30;;;;;;;9.98;3.40;;;;;;;16.10;63.10;101700.47;4966773;29;20121;-88
2021/08/17 04:00:56;;;;;;;8.05;3.20;;;;;;;16.01;63.77;101691.25;4956711;29;20035;-88
2021/08/17 04:03:24;;;;;;;10.55;3.47;;;;;;;15.90;64.42;101699.03;4977289;29;20046;-89
2021/08/17 04:05:49;;;;;;;9.52;3.83;;;;;;;15.86;64.87;101701.03;4972678;29;20031;-86
2021/08/17 04:08:16;;;;;;;10.65;4.00;;;;;;;15.78;65.26;101700.66;4965813;29;20031;-85
2021/08/17 04:10:41;;;;;;;8.80;3.92;;;;;;;15.87;65.52;101704.56;4965067;29;20032;-88
2021/08/17 04:13:08;;;;;;;13.07;3.72;;;;;;;15.98;65.33;101706.59;4949249;29;20027;-87
2021/08/17 04:15:33;;;;;;;11.23;3.70;;;;;;;15.97;65.70;101710.19;4965255;29;20049;-92
2021/08/17 04:18:00;;;;;;;8.50;4.45;;;;;;;15.99;65.77;101702.97;4965322;29;20148;-84
2021/08/17 04:20:25;;;;;;;9.38;4.10;;;;;;;15.94;65.89;101703.22;4951077;29;20160;-85
2021/08/17 04:22:52;;;;;;;11.25;4.63;;;;;;;15.82;66.44;101699.50;4966332;29;20077;-85
2021/08/17 04:25:18;;;;;;;14.80;4.88;;;;;;;15.87;66.42;101700.09;4959485;29;20027;-85
2021/08/17 04:27:43;;;;;;;9.50;4.43;;;;;;;15.87;66.46;101699.22;4924103;29;20027;-84
2021/08/17 04:30:09;;;;;;;14.55;4.85;;;;;;;15.95;66.39;101691.59;4957285;29;20097;-83
2021/08/17 04:32:36;;;;;;;10.77;4.72;;;;;;;15.96;66.73;101695.97;4957530;29;20055;-83
2021/08/17 04:35:01;;;;;;;9.90;4.50;;;;;;;15.97;66.39;101707.50;4978737;23;20051;-84
2021/08/17 04:37:27;;;;;;;13.77;4.95;;;;;;;15.89;66.75;101695.50;4928076;29;20090;-84
2021/08/17 04:39:52;;;;;;;11.10;4.93;;;;;;;15.91;67.15;101698.94;4928928;29;20031;-85
2021/08/17 04:42:17;;;;;;;11.80;4.88;;;;;;;15.86;67.54;101705.50;4944013;29;20034;-84
2021/08/17 04:44:43;;;;;;;15.13;5.47;;;;;;;16.10;66.80;101704.97;4964452;29;20031;-83
2021/08/17 04:47:08;;;;;;;15.23;5.47;;;;;;;16.05;67.35;101715.94;4915352;29;20363;-86
2021/08/17 04:49:34;;;;;;;14.10;5.40;;;;;;;16.13;66.98;101712.78;4914172;29;20273;-83
2021/08/17 04:51:59;;;;;;;12.38;5.28;;;;;;;16.18;67.17;101721.34;4968289;29;20034;-85
2021/08/17 04:54:27;;;;;;;12.00;5.38;;;;;;;16.24;67.18;101712.13;4949125;29;20062;-83
2021/08/17 04:56:54;;;;;;;10.77;5.30;;;;;;;16.19;67.54;101720.41;4928063;29;20027;-85
2021/08/17 04:59:19;;;;;;;14.38;5.57;;;;;;;16.15;67.84;101713.53;4929074;29;20059;-84
2021/08/17 05:01:48;;;;;;;13.98;5.97;;;;;;;16.10;67.96;101711.16;4946121;29;20042;-83
2021/08/17 05:04:14;;;;;;;13.27;5.55;;;;;;;16.15;68.12;101714.41;4955004;29;20035;-86
2021/08/17 05:06:39;;;;;;;13.57;6.43;;;;;;;16.10;68.46;101711.16;4933943;29;20098;-90
2021/08/17 05:09:06;;;;;;;11.98;5.72;;;;;;;16.23;67.97;101713.91;4962652;29;20031;-88
2021/08/17 05:11:31;;;;;;;14.80;6.85;;;;;;;16.22;68.16;101712.22;4927822;29;20059;-90
2021/08/17 05:13:57;;;;;;;15.75;6.47;;;;;;;16.37;68.11;101712.16;4943745;29;20078;-86
2021/08/17 05:16:22;;;;;;;13.65;6.60;;;;;;;16.38;68.16;101709.41;4927987;29;20035;-85
2021/08/17 05:18:48;;;;;;;13.85;6.75;;;;;;;16.49;68.17;101706.03;4912314;29;20032;-85
2021/08/17 05:21:13;;;;;;;13.70;5.93;;;;;;;16.59;68.17;101708.09;4929562;29;20023;-90
2021/08/17 05:23:39;;;;;;;14.25;6.30;;;;;;;16.61;68.35;101704.41;4974590;29;20036;-87
2021/08/17 05:26:04;;;;;;;12.80;6.07;;;;;;;16.65;68.24;101687.22;4974045;29;20087;-87
2021/08/17 05:28:29;;;;;;;13.30;5.65;;;;;;;16.72;68.17;101678.81;4959626;29;20078;-87
2021/08/17 05:30:55;;;;;;;12.52;6.15;;;;;;;16.47;68.68;101673.28;4944168;29;20059;-86
2021/08/17 05:33:20;;;;;;;17.40;6.53;;;;;;;16.64;68.13;101679.31;4978680;29;20039;-84
2021/08/17 05:35:46;;;;;;;16.40;6.47;;;;;;;16.95;67.41;101690.63;4961403;28;20087;-84
2021/08/17 05:38:11;;;;;;;17.52;6.43;;;;;;;16.85;67.40;101694.88;4975558;29;20061;-85
2021/08/17 05:40:37;;;;;;;15.55;7.03;;;;;;;17.00;67.15;101693.84;4977985;28;20031;-85
2021/08/17 05:43:04;;;;;;;15.85;7.32;;;;;;;17.10;66.85;101704.78;4981829;28;20103;-86
2021/08/17 05:45:30;;;;;;;14.65;6.80;;;;;;;17.22;66.75;101703.13;4982132;28;20054;-85
2021/08/17 05:47:55;;;;;;;17.42;6.78;;;;;;;17.14;66.88;101689.41;4982147;28;20051;-86
2021/08/17 05:50:21;;;;;;;18.08;8.05;;;;;;;17.31;66.47;101705.16;4981583;28;20116;-86
2021/08/17 05:52:47;;;;;;;14.50;6.63;;;;;;;17.34;66.25;101701.44;4965617;29;20023;-83
2021/08/17 05:55:12;;;;;;;15.43;6.88;;;;;;;17.35;66.02;101702.28;4982095;28;20046;-85
2021/08/17 05:57:38;;;;;;;16.83;6.72;;;;;;;17.24;66.63;101705.69;4981417;28;20061;-86
2021/08/17 06:00:07;;;;;;;13.63;6.43;;;;;;;17.03;67.75;101712.34;4981397;28;20027;-85
2021/08/17 06:02:34;;;;;;;16.88;7.40;;;;;;;17.34;66.75;101692.56;4948186;29;20022;-85
2021/08/17 06:04:59;;;;;;;16.17;6.35;;;;;;;17.50;66.02;101681.66;4976663;29;20083;-83
2021/08/17 06:07:25;;;;;;;15.10;7.18;;;;;;;17.56;65.74;101689.25;4979197;28;20102;-85
2021/08/17 06:09:51;;;;;;;16.75;6.85;;;;;;;17.51;66.11;101694.91;4978947;29;20087;-84
2021/08/17 06:12:16;;;;;;;14.52;6.57;;;;;;;17.55;65.36;101692.91;4975608;28;20043;-85
2021/08/17 06:14:42;;;;;;;20.05;7.13;;;;;;;17.53;65.42;101695.69;4981017;29;20034;-85
2021/08/17 06:17:07;;;;;;;14.48;6.68;;;;;;;17.56;65.12;101691.91;4981998;28;20042;-84
2021/08/17 06:19:33;;;;;;;14.90;6.55;;;;;;;17.62;64.46;101690.66;4981600;28;20063;-85
2021/08/17 06:21:58;;;;;;;13.82;6.55;;;;;;;17.75;64.83;101687.97;4981278;29;20026;-84
2021/08/17 06:24:24;;;;;;;18.13;6.80;;;;;;;17.84;64.38;101692.66;4981194;28;20050;-86
2021/08/17 06:26:49;;;;;;;16.20;6.68;;;;;;;17.54;65.13;101686.69;4980705;29;20054;-85
2021/08/17 06:29:15;;;;;;;18.48;7.55;;;;;;;17.59;65.30;101693.53;4976930;29;20035;-86
2021/08/17 06:31:41;;;;;;;15.00;7.55;;;;;;;17.48;65.49;101692.44;4971699;28;20015;-84
2021/08/17 06:34:06;;;;;;;15.70;7.18;;;;;;;17.63;65.12;101687.00;4981392;28;20093;-85
2021/08/17 06:36:32;;;;;;;14.18;6.82;;;;;;;17.55;65.45;101676.84;4980696;28;20051;-85
2021/08/17 06:38:58;;;;;;;13.70;7.25;;;;;;;17.64;65.48;101678.00;4964581;29;20034;-84
2021/08/17 06:41:23;;;;;;;21.10;7.60;;;;;;;17.59;65.64;101688.19;4980269;28;20071;-84
2021/08/17 06:43:49;;;;;;;21.33;7.53;;;;;;;17.40;66.63;101681.44;4980757;28;20011;-84
2021/08/17 06:46:14;;;;;;;21.83;8.27;;;;;;;17.05;68.26;101682.84;4981026;28;20019;-84
2021/08/17 06:48:40;;;;;;;19.85;8.07;;;;;;;17.17;68.29;101676.72;4979934;29;20078;-85
2021/08/17 06:51:07;;;;;;;16.75;7.60;;;;;;;17.33;68.39;101680.13;4964116;29;20117;-84
2021/08/17 06:53:32;;;;;;;19.95;8.70;;;;;;;17.31;68.87;101678.44;4981097;28;20020;-84
2021/08/17 06:55:58;;;;;;;17.17;9.13;;;;;;;17.31;68.80;101682.91;4980695;28;20039;-86
2021/08/17 06:58:23;;;;;;;20.70;9.20;;;;;;;17.32;68.59;101687.28;4964193;28;20042;-89
2021/08/17 07:00:49;;;;;;;24.10;9.20;;;;;;;17.26;68.31;101687.72;4979059;28;20115;-86
2021/08/17 07:03:14;;;;;;;22.08;9.18;;;;;;;17.30;67.67;101689.25;4980842;29;20065;-86
2021/08/17 07:05:41;;;;;;;20.00;8.77;;;;;;;17.26;67.61;101685.91;4964088;29;20031;-86
2021/08/17 07:08:07;;;;;;;18.80;8.45;;;;;;;17.18;67.99;101688.25;4979976;28;20094;-84
2021/08/17 07:10:33;;;;;;;20.27;8.65;;;;;;;17.30;67.38;101692.75;4980721;28;20040;-89
2021/08/17 07:12:59;;;;;;;18.35;8.25;;;;;;;17.62;66.02;101699.50;4979998;28;20031;-86
2021/08/17 07:15:24;;;;;;;17.70;8.43;;;;;;;17.64;66.27;101697.59;4947640;29;20031;-85
2021/08/17 07:17:50;;;;;;;14.80;7.78;;;;;;;17.63;66.04;101689.69;4975591;29;20090;-86
2021/08/17 07:20:16;;;;;;;18.85;9.10;;;;;;;17.65;66.11;101696.63;4977627;28;20084;-84
2021/08/17 07:22:41;;;;;;;14.90;7.55;;;;;;;17.76;66.03;101700.38;4976581;29;20036;-84
2021/08/17 07:25:07;;;;;;;17.45;8.35;;;;;;;17.97;65.38;101689.97;4976944;28;20093;-85
2021/08/17 07:27:33;;;;;;;18.35;8.48;;;;;;;17.96;64.55;101685.59;4979956;28;20019;-86
2021/08/17 07:29:58;;;;;;;17.55;8.30;;;;;;;18.14;63.25;101693.28;4979058;28;20041;-85
2021/08/17 07:32:24;;;;;;;15.63;8.18;;;;;;;18.17;63.04;101685.91;4979945;28;20661;-87
2021/08/17 07:34:49;;;;;;;16.45;8.32;;;;;;;18.20;63.34;101692.00;4979325;28;20054;-85
2021/08/17 07:37:15;;;;;;;17.73;8.13;;;;;;;18.55;61.88;101691.25;4963309;28;20111;-86
2021/08/17 07:39:41;;;;;;;17.85;7.40;;;;;;;18.53;62.49;101688.69;4976941;28;20046;-85
2021/08/17 07:42:06;;;;;;;16.08;7.43;;;;;;;18.66;62.06;101688.63;4962917;29;20083;-86
2021/08/17 07:44:33;;;;;;;16.08;8.05;;;;;;;18.16;63.06;101688.69;4980021;28;20030;-85
2021/08/17 07:46:58;;;;;;;14.18;7.00;;;;;;;18.37;62.43;101688.94;4962419;29;20103;-89
2021/08/17 07:49:24;;;;;;;11.82;6.70;;;;;;;18.21;62.94;101696.38;4979378;29;20094;-83
2021/08/17 07:51:49;;;;;;;16.02;7.20;;;;;;;18.17;63.59;101699.28;4979790;28;20090;-85
2021/08/17 07:54:15;;;;;;;16.30;7.32;;;;;;;18.33;63.30;101698.16;4978672;28;20023;-83
2021/08/17 07:56:40;;;;;;;19.60;8.00;;;;;;;18.11;63.65;101712.22;4979080;28;20051;-83
2021/08/17 07:59:06;;;;;;;14.93;7.18;;;;;;;17.92;64.14;101710.84;4978960;28;20043;-84
2021/08/17 08:01:31;;;;;;;17.33;7.35;;;;;;;18.11;64.06;101689.03;4979252;28;20095;-82
2021/08/17 08:03:59;;;;;;;15.95;7.63;;;;;;;18.14;63.90;101695.97;4962331;28;20125;-83
2021/08/17 08:06:25;;;;;;;18.58;7.32;;;;;;;18.42;62.71;101686.78;4979224;29;20039;-84
2021/08/17 08:08:50;;;;;;;18.13;7.45;;;;;;;18.25;63.16;101695.19;4979107;28;20132;-83
2021/08/17 08:11:16;;;;;;;15.38;6.78;;;;;;;18.29;63.63;101686.00;4979173;29;20094;-85
2021/08/17 08:13:41;;;;;;;14.38;6.95;;;;;;;18.04;63.57;101699.25;4978860;28;20023;-84
2021/08/17 08:16:07;;;;;;;14.85;6.50;;;;;;;18.21;63.39;101681.19;4977660;29;20030;-86
2021/08/17 08:18:32;;;;;;;14.60;6.63;;;;;;;18.00;63.82;101689.75;4978709;28;20073;-85
2021/08/17 08:20:58;;;;;;;19.08;7.60;;;;;;;17.89;63.25;101693.19;4978039;29;20075;-87
2021/08/17 08:23:23;;;;;;;13.93;7.22;;;;;;;17.95;63.19;101699.91;4978139;29;20011;-85
2021/08/17 08:25:49;;;;;;;18.77;6.63;;;;;;;18.09;62.50;101703.47;4979204;28;20035;-85
2021/08/17 08:28:14;;;;;;;13.95;6.93;;;;;;;18.17;62.68;101709.13;4960747;29;20059;-85
2021/08/17 08:30:40;;;;;;;14.48;6.40;;;;;;;18.33;61.86;101694.63;4978638;29;20091;-88
2021/08/17 08:33:05;;;;;;;12.02;6.03;;;;;;;18.31;62.25;101710.81;4978773;28;20031;-83
2021/08/17 08:35:31;;;;;;;11.60;5.97;;;;;;;18.35;62.04;101709.63;4972064;23;20063;-88
2021/08/17 08:37:56;;;;;;;12.48;5.95;;;;;;;18.26;62.51;101715.66;4958240;29;20046;-89
2021/08/17 08:40:23;;;;;;;12.88;6.40;;;;;;;18.02;63.38;101695.00;4940677;29;20038;-86
2021/08/17 08:42:48;;;;;;;14.25;6.15;;;;;;;17.88;64.05;101685.28;4912157;29;20047;-85
2021/08/17 08:45:14;;;;;;;12.55;5.60;;;;;;;17.90;63.69;101684.19;4949546;29;20027;-83
2021/08/17 08:47:39;;;;;;;10.93;5.80;;;;;;;17.72;64.73;101677.47;4956668;29;20121;-87
2021/08/17 08:50:05;;;;;;;10.40;5.80;;;;;;;17.47;65.22;101681.88;4962995;29;20033;-88
2021/08/17 08:52:31;;;;;;;11.10;5.95;;;;;;;17.68;64.75;101671.50;4958612;29;20031;-86
2021/08/17 08:54:56;;;;;;;12.18;5.35;;;;;;;18.01;63.84;101670.06;4956488;29;20031;-85
2021/08/17 08:57:22;;;;;;;13.18;6.00;;;;;;;17.81;63.95;101672.34;4959384;29;20090;-84
2021/08/17 08:59:47;;;;;;;13.88;5.95;;;;;;;17.87;63.48;101675.56;4942550;29;20031;-85
2021/08/17 09:02:14;;;;;;;11.57;5.78;;;;;;;17.76;63.50;101663.78;4956627;29;20023;-84
2021/08/17 09:04:48;;;;;;;8.82;4.40;;;;;;;17.73;62.26;101668.50;4955470;29;20023;-84
2021/08/17 09:07:14;;;;;;;11.88;4.55;;;;;;;17.70;62.42;101666.88;4955289;29;20023;-85
2021/08/17 09:09:40;;;;;;;12.07;5.10;;;;;;;17.84;62.84;101659.72;4955377;29;20038;-85
2021/08/17 09:12:05;;;;;;;8.85;4.53;;;;;;;17.66;63.57;101678.78;4954447;29;20486;-87
2021/08/17 09:14:32;;;;;;;15.25;5.03;;;;;;;17.83;63.02;101671.38;4957003;28;20015;-84
2021/08/17 09:16:58;;;;;;;12.70;5.25;;;;;;;17.65;63.69;101677.06;4960152;29;20130;-85
2021/08/17 09:19:43;;;;;;;8.48;4.28;;;;;;;17.59;62.48;101677.50;4960526;29;20023;-84
2021/08/17 09:22:16;;;;;;;7.57;4.20;;;;;;;17.78;62.22;101699.31;4964368;29;20391;-83
2021/08/17 09:24:43;;;;;;;10.32;4.78;;;;;;;18.00;61.58;101700.47;4936041;29;20031;-84
2021/08/17 09:27:15;;;;;;;8.88;4.20;;;;;;;17.97;61.51;101691.78;4967299;29;20039;-84
2021/08/17 09:29:42;;;;;;;15.55;5.07;;;;;;;17.92;61.28;101710.84;4969142;29;20019;-86
2021/08/17 09:32:20;;;;;;;10.27;4.10;;;;;;;18.11;60.34;101709.53;4960709;29;20035;-84
2021/08/17 09:34:50;;;;;;;8.07;4.72;;;;;;;18.16;59.70;101704.75;4939227;29;20052;-87
2021/08/17 09:37:16;;;;;;;9.93;4.60;;;;;;;18.09;60.16;101688.22;4945402;29;20216;-86
2021/08/17 09:39:50;;;;;;;9.35;4.70;;;;;;;18.40;59.58;101685.19;4943582;29;20145;-87
2021/08/17 09:42:23;;;;;;;6.95;3.90;;;;;;;18.12;60.12;101703.25;4955532;29;20038;-85
2021/08/17 09:45:09;;;;;;;8.60;3.90;;;;;;;18.03;60.49;101684.19;4961924;29;20095;-87
2021/08/17 09:47:35;;;;;;;7.55;4.43;;;;;;;17.87;61.33;101678.22;4958424;29;20480;-87
2021/08/17 09:50:16;;;;;;;6.32;4.10;;;;;;;17.89;61.01;101668.25;4974236;29;20011;-87
2021/08/17 09:52:42;;;;;;;10.65;4.43;;;;;;;18.01;60.67;101662.03;4961515;29;20035;-85
2021/08/17 09:55:19;;;;;;;8.75;4.00;;;;;;;17.84;60.74;101676.59;4960076;29;20050;-87
2021/08/17 09:57:44;;;;;;;7.38;4.40;;;;;;;17.65;61.92;101677.06;4961366;29;20035;-85
2021/08/17 10:00:14;;;;;;;8.52;3.78;;;;;;;17.51;62.12;101667.34;4962267;29;20020;-84
2021/08/17 10:02:45;;;;;;;7.45;3.97;;;;;;;17.49;61.77;101672.78;4962212;29;20012;-84
2021/08/17 10:05:15;;;;;;;6.68;3.65;;;;;;;17.64;61.46;101670.84;4962100;29;20024;-85
2021/08/17 10:07:41;;;;;;;8.32;4.00;;;;;;;17.77;61.26;101668.19;4956715;29;20040;-87
2021/08/17 10:10:07;;;;;;;7.03;3.95;;;;;;;17.90;61.10;101670.81;4953424;29;20039;-89
2021/08/17 10:12:32;;;;;;;6.40;3.53;;;;;;;17.68;61.37;101671.50;4953413;29;20071;-86
2021/08/17 10:14:58;;;;;;;7.28;4.03;;;;;;;17.53;62.32;101670.75;4945760;29;20042;-87
2021/08/17 10:17:23;;;;;;;7.18;3.72;;;;;;;17.73;61.88;101665.84;4949676;29;20047;-87
2021/08/17 10:19:49;;;;;;;10.18;4.53;;;;;;;17.80;61.82;101669.78;4960640;29;20455;-85
2021/08/17 10:22:14;;;;;;;5.50;3.58;;;;;;;17.47;62.65;101687.22;4961158;29;20016;-84
2021/08/17 10:24:40;;;;;;;7.60;3.45;;;;;;;17.50;62.28;101673.63;4929285;29;20048;-85
2021/08/17 10:27:15;;;;;;;6.18;4.53;;;;;;;17.58;62.16;101675.78;4959519;29;20040;-83
2021/08/17 10:29:59;;;;;;;7.15;3.92;;;;;;;17.55;62.64;101674.19;4960269;29;20032;-83
2021/08/17 10:32:56;;;;;;;6.57;4.22;;;;;;;17.54;62.89;101678.66;4977172;28;20031;-85
2021/08/17 10:35:31;;;;;;;8.75;3.80;;;;;;;17.62;61.96;101680.78;4970962;28;20074;-85
2021/08/17 10:38:09;;;;;;;7.25;4.05;;;;;;;17.56;63.21;101686.56;4980568;28;20063;-83
2021/08/17 10:40:50;;;;;;;7.45;4.45;;;;;;;17.13;66.68;101680.53;4980021;28;20142;-85
2021/08/17 10:43:35;;;;;;;9.13;4.38;;;;;;;16.67;69.40;101681.78;4979614;28;20008;-88
2021/08/17 10:46:05;;;;;;;8.23;4.70;;;;;;;16.52;70.32;101678.31;4967540;28;20034;-86
2021/08/17 10:48:46;;;;;;;11.52;5.20;;;;;;;16.35;71.95;101680.22;4981174;28;20090;-85
2021/08/17 10:51:17;;;;;;;14.85;5.45;;;;;;;16.00;74.18;101686.88;4980542;28;20094;-86
2021/08/17 10:53:42;;;;;;;9.80;5.53;;;;;;;16.08;74.29;101678.41;4978433;28;20086;-84
2021/08/17 10:56:12;;;;;;;10.60;5.45;;;;;;;16.05;75.16;101676.75;4980560;28;20054;-87
2021/08/17 10:58:45;;;;;;;10.88;5.78;;;;;;;16.18;74.62;101682.19;4963466;28;20027;-85
2021/08/17 11:01:10;;;;;;;8.98;5.57;;;;;;;16.20;74.62;101674.09;4963714;29;20025;-87
2021/08/17 11:03:40;;;;;;;9.80;5.32;;;;;;;16.39;74.39;101671.09;4980337;29;20126;-85
2021/08/17 11:06:05;;;;;;;10.20;5.75;;;;;;;16.46;74.16;101674.19;4945906;29;20079;-85
2021/08/17 11:08:31;;;;;;;11.98;6.10;;;;;;;16.46;74.09;101674.19;4943267;29;20062;-86
2021/08/17 11:10:57;;;;;;;10.52;6.00;;;;;;;16.43;74.78;101677.06;4968948;29;20053;-87
2021/08/17 11:13:25;;;;;;;9.13;5.07;;;;;;;16.39;74.86;101670.22;4953511;29;20094;-85
2021/08/17 11:16:09;;;;;;;10.32;5.30;;;;;;;16.20;75.67;101674.09;4977448;29;20011;-84
2021/08/17 11:18:57;;;;;;;9.52;4.60;;;;;;;16.01;76.94;101664.59;4979006;29;20035;-85
2021/08/17 11:21:32;;;;;;;7.88;4.43;;;;;;;16.17;76.64;101674.28;4978770;28;20049;-86
2021/08/17 11:24:07;;;;;;;10.05;3.78;;;;;;;16.00;76.79;101672.69;4961708;29;20106;-87